createdAt,value
2023-01-03T00:00:27.702Z,8.20
2023-01-03T00:02:59.510Z,8.10
2023-01-03T00:05:33.769Z,8.10
2023-01-03T00:08:05.739Z,8.00
2023-01-03T00:10:37.650Z,8.00
2023-01-03T00:13:09.511Z,8.00
2023-01-03T00:15:41.424Z,7.90
2023-01-03T00:18:13.165Z,7.90
2023-01-03T00:20:45.019Z,8.00
2023-01-03T00:23:16.749Z,8.10
2023-01-03T00:25:48.450Z,8.10
2023-01-03T00:28:20.229Z,8.10
2023-01-03T00:30:51.973Z,8.10
2023-01-03T00:33:23.833Z,8.00
2023-01-03T00:35:55.504Z,8.00
2023-01-03T00:38:27.256Z,8.00
2023-01-03T00:41:10.653Z,8.00
2023-01-03T00:43:44.212Z,8.00
2023-01-03T00:46:18.172Z,8.00
2023-01-03T00:48:50.447Z,8.00
2023-01-03T00:51:28.539Z,7.90
2023-01-03T00:54:02.102Z,7.90
2023-01-03T00:56:37.195Z,7.80
2023-01-03T00:59:09.774Z,7.80
2023-01-03T01:01:47.460Z,7.80
2023-01-03T01:04:23.749Z,7.80
2023-01-03T01:06:58.326Z,7.80
2023-01-03T01:09:35.326Z,7.70
2023-01-03T01:12:07.637Z,7.70
2023-01-03T01:14:39.370Z,7.70
2023-01-03T01:17:11.281Z,7.60
2023-01-03T01:19:44.002Z,7.60
2023-01-03T01:22:15.895Z,7.60
2023-01-03T01:24:47.687Z,7.50
2023-01-03T01:27:19.474Z,7.50
2023-01-03T01:29:51.352Z,7.50
2023-01-03T01:32:23.402Z,7.50
2023-01-03T01:34:55.466Z,7.40
2023-01-03T01:37:27.165Z,7.40
2023-01-03T01:39:58.878Z,7.30
2023-01-03T01:42:49.160Z,7.40
2023-01-03T01:45:20.875Z,7.40
2023-01-03T01:47:56.095Z,7.30
2023-01-03T01:50:45.074Z,7.20
2023-01-03T01:53:23.192Z,7.20
2023-01-03T01:56:06.245Z,7.30
2023-01-03T01:58:41.124Z,7.20
2023-01-03T02:01:14.989Z,7.20
2023-01-03T02:03:55.450Z,7.30
2023-01-03T02:06:28.801Z,7.40
2023-01-03T02:09:00.858Z,7.50
2023-01-03T02:11:37.499Z,7.50
2023-01-03T02:14:42.452Z,7.50
2023-01-03T02:17:47.489Z,7.40
2023-01-03T02:20:32.227Z,7.40
2023-01-03T02:23:33.579Z,7.30
2023-01-03T02:26:11.069Z,7.30
2023-01-03T02:29:04.956Z,7.30
2023-01-03T02:31:50.577Z,7.20
2023-01-03T02:34:49.235Z,7.10
2023-01-03T02:37:35.952Z,7.10
2023-01-03T02:40:34.738Z,7.00
2023-01-03T02:43:16.323Z,7.00
2023-01-03T02:46:06.441Z,7.00
2023-01-03T02:48:59.179Z,6.90
2023-01-03T02:51:39.437Z,6.90
2023-01-03T02:54:18.533Z,6.90
2023-01-03T02:56:52.399Z,6.80
2023-01-03T02:59:36.563Z,6.90
2023-01-03T03:02:09.849Z,6.80
2023-01-03T03:04:45.125Z,6.80
2023-01-03T03:07:31.235Z,6.80
2023-01-03T03:10:22.710Z,6.80
2023-01-03T03:13:15.500Z,6.70
2023-01-03T03:15:59.091Z,6.70
2023-01-03T03:18:43.097Z,6.70
2023-01-03T03:21:37.153Z,6.70
2023-01-03T03:24:33.248Z,6.70
2023-01-03T03:27:29.163Z,6.70
2023-01-03T03:30:03.762Z,6.70
2023-01-03T03:32:38.412Z,6.70
2023-01-03T03:35:14.108Z,6.70
2023-01-03T03:37:49.119Z,6.70
2023-01-03T03:40:42.296Z,6.70
2023-01-03T03:44:00.731Z,6.60
2023-01-03T03:46:41.397Z,6.60
2023-01-03T03:49:36.571Z,6.60
2023-01-03T03:52:16.023Z,6.50
2023-01-03T03:54:54.383Z,6.50
2023-01-03T03:58:06.880Z,6.50
2023-01-03T04:00:41.813Z,6.40
2023-01-03T04:03:15.815Z,6.40
2023-01-03T04:05:55.660Z,6.40
2023-01-03T04:08:27.550Z,6.40
2023-01-03T04:11:08.028Z,6.30
2023-01-03T04:13:40.047Z,6.30
2023-01-03T04:16:12.338Z,6.20
2023-01-03T04:18:44.138Z,6.20
2023-01-03T04:21:20.662Z,6.10
2023-01-03T04:23:53.054Z,6.10
2023-01-03T04:26:24.895Z,6.00
2023-01-03T04:28:56.735Z,5.90
2023-01-03T04:31:28.493Z,5.90
2023-01-03T04:34:00.308Z,5.90
2023-01-03T04:36:32.088Z,5.80
2023-01-03T04:39:03.916Z,5.70
2023-01-03T04:41:35.788Z,5.70
2023-01-03T04:44:07.547Z,5.70
2023-01-03T04:46:40.391Z,5.70
2023-01-03T04:49:12.107Z,5.60
2023-01-03T04:51:43.878Z,5.60
2023-01-03T04:54:15.736Z,5.60
2023-01-03T04:56:47.442Z,5.70
2023-01-03T04:59:19.162Z,5.70
2023-01-03T05:01:52.251Z,5.70
2023-01-03T05:04:24.464Z,5.70
2023-01-03T05:06:57.005Z,5.70
2023-01-03T05:09:29.082Z,5.70
2023-01-03T05:12:00.795Z,5.70
2023-01-03T05:14:32.583Z,5.70
2023-01-03T05:17:04.366Z,5.70
2023-01-03T05:19:56.693Z,5.70
2023-01-03T05:22:47.060Z,5.70
2023-01-03T05:25:37.448Z,5.80
2023-01-03T05:28:13.798Z,5.70
2023-01-03T05:30:49.088Z,5.70
2023-01-03T05:33:20.849Z,5.70
2023-01-03T05:35:52.755Z,5.60
2023-01-03T05:38:24.779Z,5.60
2023-01-03T05:40:56.471Z,5.50
2023-01-03T05:43:28.253Z,5.50
2023-01-03T05:46:00.224Z,5.40
2023-01-03T05:48:32.059Z,5.40
2023-01-03T05:51:04.142Z,5.40
2023-01-03T05:53:36.007Z,5.40
2023-01-03T05:56:08.019Z,5.30
2023-01-03T05:58:39.755Z,5.30
2023-01-03T06:01:13.074Z,5.30
2023-01-03T06:03:48.212Z,5.30
2023-01-03T06:06:20.081Z,5.20
2023-01-03T06:08:51.947Z,5.20
2023-01-03T06:11:23.683Z,5.20
2023-01-03T06:13:55.415Z,5.10
2023-01-03T06:16:45.935Z,5.10
2023-01-03T06:19:17.772Z,5.10
2023-01-03T06:21:49.460Z,5.10
2023-01-03T06:24:21.239Z,5.10
2023-01-03T06:26:52.974Z,5.10
2023-01-03T06:29:24.655Z,5.10
2023-01-03T06:31:56.499Z,5.00
2023-01-03T06:34:28.265Z,5.00
2023-01-03T06:37:00.009Z,5.00
2023-01-03T06:39:33.495Z,5.00
2023-01-03T06:42:23.681Z,4.90
2023-01-03T06:45:14.089Z,4.90
2023-01-03T06:48:04.576Z,4.90
2023-01-03T06:51:20.709Z,4.90
2023-01-03T06:53:52.514Z,4.90
2023-01-03T06:56:25.913Z,4.90
2023-01-03T06:58:57.650Z,4.80
2023-01-03T07:01:29.698Z,4.80
2023-01-03T07:04:02.543Z,4.80
2023-01-03T07:06:34.376Z,4.80
2023-01-03T07:09:06.805Z,4.80
2023-01-03T07:11:39.526Z,4.80
2023-01-03T07:14:12.481Z,4.70
2023-01-03T07:16:47.234Z,4.70
2023-01-03T07:19:19.999Z,4.70
2023-01-03T07:21:51.738Z,4.70
2023-01-03T07:24:23.491Z,4.70
2023-01-03T07:26:55.588Z,4.70
2023-01-03T07:29:27.327Z,4.60
2023-01-03T07:31:59.505Z,4.60
2023-01-03T07:34:31.335Z,4.60
2023-01-03T07:37:03.100Z,4.60
2023-01-03T07:39:34.795Z,4.60
2023-01-03T07:42:29.806Z,4.60
2023-01-03T07:45:02.042Z,4.60
2023-01-03T07:47:33.918Z,4.60
2023-01-03T07:50:05.787Z,4.60
2023-01-03T07:52:37.478Z,4.60
2023-01-03T07:55:09.341Z,4.70
2023-01-03T07:57:41.089Z,4.70
2023-01-03T08:00:13.309Z,4.80
2023-01-03T08:02:45.328Z,4.80
2023-01-03T08:05:17.340Z,4.90
2023-01-03T08:07:49.871Z,5.00
2023-01-03T08:10:40.184Z,5.10
2023-01-03T08:13:17.841Z,5.20
2023-01-03T08:15:51.005Z,5.20
2023-01-03T08:18:25.017Z,5.30
2023-01-03T08:20:57.406Z,5.40
2023-01-03T08:23:29.800Z,5.40
2023-01-03T08:26:15.584Z,5.40
2023-01-03T08:28:47.269Z,5.40
2023-01-03T08:31:22.157Z,5.40
2023-01-03T08:33:58.128Z,5.50
2023-01-03T08:36:39.815Z,5.50
2023-01-03T08:39:16.886Z,5.50
2023-01-03T08:41:59.213Z,5.60
2023-01-03T08:44:31.152Z,5.70
2023-01-03T08:47:07.765Z,5.80
2023-01-03T08:49:40.045Z,5.80
2023-01-03T08:52:11.831Z,5.90
2023-01-03T08:54:44.027Z,5.90
2023-01-03T08:57:15.821Z,6.00
2023-01-03T08:59:47.614Z,6.10
2023-01-03T09:02:19.382Z,6.10
2023-01-03T09:04:51.241Z,6.10
2023-01-03T09:07:22.952Z,6.20
2023-01-03T09:09:54.719Z,6.30
2023-01-03T09:12:27.908Z,6.40
2023-01-03T09:14:59.617Z,6.40
2023-01-03T09:17:31.448Z,6.50
2023-01-03T09:20:03.447Z,6.50
2023-01-03T09:22:35.263Z,6.60
2023-01-03T09:25:07.577Z,6.70
2023-01-03T09:27:39.304Z,6.80
2023-01-03T09:30:11.334Z,6.90
2023-01-03T09:32:43.142Z,6.90
2023-01-03T09:35:14.887Z,7.00
2023-01-03T09:37:49.719Z,7.10
2023-01-03T09:40:21.558Z,7.40
2023-01-03T09:43:12.122Z,7.60
2023-01-03T09:45:52.149Z,7.80
2023-01-03T09:48:35.844Z,8.20
2023-01-03T09:51:30.380Z,8.70
2023-01-03T09:54:41.044Z,9.30
2023-01-03T09:57:45.768Z,9.80
2023-01-03T10:00:43.065Z,10.10
2023-01-03T10:03:52.589Z,10.40
2023-01-03T10:07:05.003Z,10.60
2023-01-03T10:09:43.159Z,11.00
2023-01-03T10:12:36.727Z,10.90
2023-01-03T10:15:23.479Z,10.90
2023-01-03T10:18:10.181Z,10.80
2023-01-03T10:20:59.732Z,10.70
2023-01-03T10:23:31.828Z,10.30
2023-01-03T10:26:12.545Z,10.20
2023-01-03T10:28:46.043Z,10.20
2023-01-03T10:31:47.213Z,10.50
2023-01-03T10:34:18.991Z,10.80
2023-01-03T10:36:50.669Z,10.90
2023-01-03T10:39:31.478Z,11.00
2023-01-03T10:42:05.591Z,10.90
2023-01-03T10:44:37.353Z,11.00
2023-01-03T10:47:15.274Z,11.10
2023-01-03T10:49:47.358Z,11.10
2023-01-03T10:52:22.919Z,11.40
2023-01-03T10:55:02.068Z,11.90
2023-01-03T10:57:53.085Z,12.20
2023-01-03T11:00:26.948Z,12.80
2023-01-03T11:03:10.994Z,13.10
2023-01-03T11:05:46.513Z,12.70
2023-01-03T11:08:34.869Z,13.00
2023-01-03T11:11:30.637Z,14.00
2023-01-03T11:14:23.047Z,15.30
2023-01-03T11:17:05.255Z,15.50
2023-01-03T11:19:36.999Z,15.60
2023-01-03T11:22:38.115Z,15.70
2023-01-03T11:25:22.206Z,15.80
2023-01-03T11:28:18.505Z,16.00
2023-01-03T11:31:14.759Z,15.50
2023-01-03T11:34:55.404Z,14.00
2023-01-03T11:37:28.528Z,12.20
2023-01-03T11:40:12.178Z,11.10
2023-01-03T11:42:58.937Z,10.50
2023-01-03T11:46:06.436Z,10.10
2023-01-03T11:49:04.458Z,9.80
2023-01-03T11:51:54.604Z,9.60
2023-01-03T11:55:11.073Z,9.40
2023-01-03T11:58:10.312Z,9.30
2023-01-03T12:00:52.740Z,9.30
2023-01-03T12:03:48.783Z,9.20
2023-01-03T12:07:21.586Z,9.20
2023-01-03T12:09:59.614Z,9.10
2023-01-03T12:12:49.417Z,9.20
2023-01-03T12:15:46.517Z,9.30
2023-01-03T12:18:28.458Z,9.30
2023-01-03T12:21:09.121Z,9.30
2023-01-03T12:23:45.491Z,9.40
2023-01-03T12:26:17.449Z,9.40
2023-01-03T12:29:05.715Z,9.40
2023-01-03T12:31:49.649Z,9.50
2023-01-03T12:34:36.670Z,9.50
2023-01-03T12:37:19.312Z,9.50
2023-01-03T12:40:04.854Z,9.50
2023-01-03T12:43:03.628Z,9.30
2023-01-03T12:45:41.391Z,9.30
2023-01-03T12:48:31.185Z,9.30
2023-01-03T12:51:02.952Z,9.20
2023-01-03T12:54:09.054Z,9.10
2023-01-03T12:56:47.967Z,9.10
2023-01-03T12:59:46.118Z,9.20
2023-01-03T13:02:26.983Z,9.20
2023-01-03T13:05:18.536Z,9.30
2023-01-03T13:08:13.420Z,9.30
2023-01-03T13:10:50.509Z,9.20
2023-01-03T13:13:22.667Z,9.10
2023-01-03T13:15:54.623Z,9.00
2023-01-03T13:18:30.978Z,9.10
2023-01-03T13:21:45.261Z,9.10
2023-01-03T13:24:38.804Z,9.10
2023-01-03T13:27:19.461Z,9.20
2023-01-03T13:29:51.291Z,9.10
2023-01-03T13:32:23.083Z,9.10
2023-01-03T13:34:54.772Z,9.00
2023-01-03T13:37:51.227Z,8.90
2023-01-03T13:41:07.968Z,8.90
2023-01-03T13:43:40.169Z,9.00
2023-01-03T13:46:29.202Z,9.00
2023-01-03T13:49:07.384Z,8.90
2023-01-03T13:51:39.118Z,8.90
2023-01-03T13:54:13.935Z,9.00
2023-01-03T13:56:45.664Z,9.00
2023-01-03T13:59:50.463Z,9.00
2023-01-03T14:02:37.845Z,9.10
2023-01-03T14:05:18.631Z,9.10
2023-01-03T14:08:02.169Z,9.10
2023-01-03T14:10:55.140Z,9.10
2023-01-03T14:13:49.811Z,9.10
2023-01-03T14:16:28.376Z,9.00
2023-01-03T14:19:24.170Z,9.00
2023-01-03T14:22:31.474Z,9.10
2023-01-03T14:25:04.117Z,9.10
2023-01-03T14:27:40.252Z,9.10
2023-01-03T14:30:24.235Z,9.00
2023-01-03T14:32:56.166Z,9.00
2023-01-03T14:35:46.246Z,9.00
2023-01-03T14:38:30.009Z,8.80
2023-01-03T14:41:03.098Z,8.60
2023-01-03T14:43:35.586Z,8.40
2023-01-03T14:46:11.220Z,8.20
2023-01-03T14:48:46.538Z,8.20
2023-01-03T14:51:18.981Z,8.20
2023-01-03T14:53:52.047Z,8.20
2023-01-03T14:56:26.028Z,8.10
2023-01-03T14:58:58.489Z,8.00
2023-01-03T15:01:30.526Z,7.90
2023-01-03T15:04:02.772Z,8.10
2023-01-03T15:06:35.960Z,8.20
2023-01-03T15:09:22.214Z,8.20
2023-01-03T15:11:59.572Z,8.10
2023-01-03T15:14:34.530Z,8.00
2023-01-03T15:17:15.328Z,7.90
2023-01-03T15:19:54.187Z,7.80
2023-01-03T15:22:39.012Z,7.70
2023-01-03T15:25:18.102Z,7.60
2023-01-03T15:27:50.837Z,7.40
2023-01-03T15:30:25.719Z,7.30
2023-01-03T15:33:01.358Z,7.10
2023-01-03T15:35:43.032Z,7.00
2023-01-03T15:38:28.693Z,6.90
2023-01-03T15:41:01.433Z,6.80
2023-01-03T15:43:37.794Z,6.70
2023-01-03T15:46:16.717Z,6.60
2023-01-03T15:48:56.668Z,6.50
2023-01-03T15:51:28.533Z,6.40
2023-01-03T15:54:00.215Z,6.40
2023-01-03T15:56:36.702Z,6.20
2023-01-03T15:59:09.451Z,6.20
2023-01-03T16:01:41.253Z,6.10
2023-01-03T16:04:13.603Z,6.10
2023-01-03T16:06:45.564Z,6.00
2023-01-03T16:09:17.299Z,6.00
2023-01-03T16:11:55.952Z,5.90
2023-01-03T16:14:36.835Z,5.80
2023-01-03T16:17:20.850Z,5.80
2023-01-03T16:19:58.856Z,5.70
2023-01-03T16:22:35.766Z,5.60
2023-01-03T16:25:15.378Z,5.60
2023-01-03T16:27:47.067Z,5.50
2023-01-03T16:30:18.945Z,5.50
2023-01-03T16:32:50.925Z,5.40
2023-01-03T16:35:22.864Z,5.40
2023-01-03T16:37:54.576Z,5.30
2023-01-03T16:40:26.404Z,5.30
2023-01-03T16:42:58.111Z,5.30
2023-01-03T16:45:29.870Z,5.30
2023-01-03T16:48:01.783Z,5.30
2023-01-03T16:50:36.867Z,5.30
2023-01-03T16:53:09.583Z,5.30
2023-01-03T16:55:41.361Z,5.30
2023-01-03T16:58:15.886Z,5.20
2023-01-03T17:00:47.790Z,5.20
2023-01-03T17:03:20.215Z,5.20
2023-01-03T17:05:52.281Z,5.10
2023-01-03T17:08:28.850Z,5.10
2023-01-03T17:11:01.524Z,5.00
2023-01-03T17:13:39.700Z,5.00
2023-01-03T17:16:31.891Z,5.00
2023-01-03T17:19:03.640Z,5.00
2023-01-03T17:21:35.556Z,4.90
2023-01-03T17:24:28.824Z,4.90
2023-01-03T17:27:04.299Z,4.80
2023-01-03T17:29:36.993Z,4.80
2023-01-03T17:32:20.228Z,4.70
2023-01-03T17:34:52.048Z,4.70
2023-01-03T17:37:24.415Z,4.70
2023-01-03T17:39:59.670Z,4.60
2023-01-03T17:42:31.421Z,4.60
2023-01-03T17:45:21.756Z,4.60
2023-01-03T17:48:12.155Z,4.50
2023-01-03T17:50:44.939Z,4.50
2023-01-03T17:53:20.036Z,4.50
2023-01-03T17:55:51.842Z,4.40
2023-01-03T17:58:37.608Z,4.40
2023-01-03T18:01:11.980Z,4.40
2023-01-03T18:03:48.436Z,4.30
2023-01-03T18:06:22.703Z,4.30
2023-01-03T18:08:56.417Z,4.20
2023-01-03T18:11:28.317Z,4.30
2023-01-03T18:14:00.031Z,4.20
2023-01-03T18:16:31.869Z,4.20
2023-01-03T18:19:03.558Z,4.20
2023-01-03T18:21:35.819Z,4.20
2023-01-03T18:24:23.493Z,4.20
2023-01-03T18:26:56.684Z,4.20
2023-01-03T18:29:28.426Z,4.10
2023-01-03T18:32:00.140Z,4.00
2023-01-03T18:34:31.878Z,4.00
2023-01-03T18:37:03.671Z,3.90
2023-01-03T18:39:35.401Z,3.90
2023-01-03T18:42:27.608Z,3.80
2023-01-03T18:44:59.322Z,3.80
2023-01-03T18:47:31.061Z,3.80
2023-01-03T18:50:03.051Z,3.80
2023-01-03T18:52:39.721Z,3.80
2023-01-03T18:55:17.233Z,3.80
2023-01-03T18:57:50.745Z,3.80
2023-01-03T19:00:26.342Z,3.80
2023-01-03T19:02:58.358Z,3.80
2023-01-03T19:05:30.243Z,3.80
2023-01-03T19:08:01.959Z,3.70
2023-01-03T19:10:33.637Z,3.70
2023-01-03T19:13:05.892Z,3.70
2023-01-03T19:15:37.627Z,3.70
2023-01-03T19:18:10.061Z,3.70
2023-01-03T19:20:42.158Z,3.70
2023-01-03T19:23:26.698Z,3.70
2023-01-03T19:26:01.309Z,3.60
2023-01-03T19:28:33.043Z,3.70
2023-01-03T19:31:04.983Z,3.60
2023-01-03T19:33:36.786Z,3.60
2023-01-03T19:36:14.825Z,3.50
2023-01-03T19:38:46.619Z,3.50
2023-01-03T19:41:20.179Z,3.40
2023-01-03T19:43:52.058Z,3.40
2023-01-03T19:46:23.901Z,3.30
2023-01-03T19:48:55.664Z,3.30
2023-01-03T19:51:27.439Z,3.30
2023-01-03T19:53:59.093Z,3.30
2023-01-03T19:56:30.864Z,3.30
2023-01-03T19:59:03.659Z,3.30
2023-01-03T20:01:58.345Z,3.30
2023-01-03T20:04:28.865Z,3.30
2023-01-03T20:07:00.580Z,3.40
2023-01-03T20:09:32.238Z,3.60
2023-01-03T20:12:04.142Z,3.80
2023-01-03T20:14:36.176Z,3.90
2023-01-03T20:17:25.094Z,4.00
2023-01-03T20:19:56.861Z,3.90
2023-01-03T20:23:03.225Z,3.80
2023-01-03T20:25:28.816Z,3.70
2023-01-03T20:28:01.464Z,3.60
2023-01-03T20:30:34.442Z,3.60
2023-01-03T20:33:06.236Z,3.50
2023-01-03T20:36:09.752Z,3.50
2023-01-03T20:38:29.967Z,3.40
2023-01-03T20:41:01.659Z,3.40
2023-01-03T20:43:33.477Z,3.40
2023-01-03T20:46:05.366Z,3.40
2023-01-03T20:48:37.196Z,3.40
2023-01-03T20:51:12.970Z,3.40
2023-01-03T20:53:47.815Z,3.50
2023-01-03T20:56:23.110Z,3.60
2023-01-03T20:58:54.939Z,3.60
2023-01-03T21:01:26.910Z,3.50
2023-01-03T21:03:58.700Z,3.50
2023-01-03T21:06:34.271Z,3.50
2023-01-03T21:09:06.089Z,3.50
2023-01-03T21:11:38.896Z,3.60
2023-01-03T21:14:10.735Z,3.80
2023-01-03T21:16:45.023Z,3.90
2023-01-03T21:19:22.103Z,4.10
2023-01-03T21:21:55.109Z,4.30
2023-01-03T21:24:26.798Z,4.30
2023-01-03T21:26:58.746Z,4.40
2023-01-03T21:29:30.473Z,4.50
2023-01-03T21:32:02.184Z,4.60
2023-01-03T21:34:34.155Z,4.60
2023-01-03T21:37:05.885Z,4.60
2023-01-03T21:39:37.601Z,4.70
2023-01-03T21:42:32.121Z,4.70
2023-01-03T21:45:04.156Z,4.70
2023-01-03T21:47:35.845Z,4.70
2023-01-03T21:50:08.534Z,4.70
2023-01-03T21:52:40.352Z,4.60
2023-01-03T21:55:12.244Z,4.60
2023-01-03T21:57:44.326Z,4.50
2023-01-03T22:00:17.016Z,4.50
2023-01-03T22:03:07.896Z,4.50
2023-01-03T22:05:39.705Z,4.50
2023-01-03T22:08:11.464Z,4.30
2023-01-03T22:10:43.237Z,4.30
2023-01-03T22:13:15.028Z,4.20
2023-01-03T22:15:46.689Z,4.20
2023-01-03T22:18:18.362Z,4.20
2023-01-03T22:20:50.051Z,4.30
2023-01-03T22:23:21.852Z,4.40
2023-01-03T22:25:53.535Z,4.40
2023-01-03T22:28:25.282Z,4.40
2023-01-03T22:30:56.971Z,4.40
2023-01-03T22:33:28.692Z,4.20
2023-01-03T22:36:00.819Z,4.10
2023-01-03T22:38:32.555Z,4.00
2023-01-03T22:41:12.397Z,3.90
2023-01-03T22:43:45.042Z,3.80
2023-01-03T22:46:21.904Z,3.70
2023-01-03T22:48:55.299Z,3.60
2023-01-03T22:51:27.040Z,3.60
2023-01-03T22:53:58.765Z,3.50
2023-01-03T22:56:30.482Z,3.40
2023-01-03T22:59:02.353Z,3.40
2023-01-03T23:01:34.288Z,3.30
2023-01-03T23:04:08.855Z,3.20
2023-01-03T23:06:40.606Z,3.20
2023-01-03T23:09:13.957Z,3.30
2023-01-03T23:12:04.505Z,3.50
2023-01-03T23:14:36.453Z,3.40
2023-01-03T23:17:26.955Z,3.30
2023-01-03T23:19:58.693Z,3.20
2023-01-03T23:22:30.909Z,3.10
2023-01-03T23:25:02.606Z,3.00
2023-01-03T23:27:34.724Z,3.00
2023-01-03T23:30:07.129Z,2.90
2023-01-03T23:32:38.833Z,2.90
2023-01-03T23:35:10.594Z,2.90
2023-01-03T23:37:42.312Z,2.90
2023-01-03T23:40:14.574Z,3.00
2023-01-03T23:42:46.411Z,3.20
2023-01-03T23:45:18.128Z,3.40
2023-01-03T23:47:51.767Z,3.30
2023-01-03T23:50:23.584Z,3.20
2023-01-03T23:52:55.369Z,3.10
2023-01-03T23:55:27.203Z,3.00
2023-01-03T23:57:58.872Z,2.90
